sensor_id;sensor_type;location;lat;lon;timestamp;temperature;humidity
14008;DHT22;61651;45.508;12.232;2024-03-08T00:00:53;13.30;99.90
14008;DHT22;61651;45.508;12.232;2024-03-08T00:03:55;13.30;99.90
14008;DHT22;61651;45.508;12.232;2024-03-08T00:06:57;13.20;99.90
14008;DHT22;61651;45.508;12.232;2024-03-08T00:10:00;13.10;99.90
14008;DHT22;61651;45.508;12.232;2024-03-08T00:13:02;13.20;99.90
14008;DHT22;61651;45.508;12.232;2024-03-08T00:16:06;13.20;99.90
14008;DHT22;61651;45.508;12.232;2024-03-08T00:19:09;13.20;99.90
14008;DHT22;61651;45.508;12.232;2024-03-08T00:22:11;13.10;99.90
14008;DHT22;61651;45.508;12.232;2024-03-08T00:25:15;13.20;99.90
14008;DHT22;61651;45.508;12.232;2024-03-08T00:28:17;13.20;99.90
14008;DHT22;61651;45.508;12.232;2024-03-08T00:31:19;13.10;99.90
14008;DHT22;61651;45.508;12.232;2024-03-08T00:34:21;13.10;99.90
14008;DHT22;61651;45.508;12.232;2024-03-08T00:37:23;13.20;99.90
14008;DHT22;61651;45.508;12.232;2024-03-08T00:40:26;13.20;99.90
14008;DHT22;61651;45.508;12.232;2024-03-08T00:43:29;13.20;99.90
14008;DHT22;61651;45.508;12.232;2024-03-08T00:46:31;13.20;99.90
14008;DHT22;61651;45.508;12.232;2024-03-08T00:49:34;13.20;99.90
14008;DHT22;61651;45.508;12.232;2024-03-08T00:52:37;13.20;99.90
14008;DHT22;61651;45.508;12.232;2024-03-08T00:55:40;13.20;99.90
14008;DHT22;61651;45.508;12.232;2024-03-08T00:58:42;13.20;99.90
14008;DHT22;61651;45.508;12.232;2024-03-08T01:01:44;13.20;99.90
14008;DHT22;61651;45.508;12.232;2024-03-08T01:04:46;13.20;99.90
14008;DHT22;61651;45.508;12.232;2024-03-08T01:07:48;13.30;99.90
14008;DHT22;61651;45.508;12.232;2024-03-08T01:10:52;13.30;99.90
14008;DHT22;61651;45.508;12.232;2024-03-08T01:13:54;13.40;99.90
14008;DHT22;61651;45.508;12.232;2024-03-08T01:16:56;13.40;99.90
14008;DHT22;61651;45.508;12.232;2024-03-08T01:19:58;13.30;99.90
14008;DHT22;61651;45.508;12.232;2024-03-08T01:23:00;13.30;99.90
14008;DHT22;61651;45.508;12.232;2024-03-08T01:26:03;13.30;99.90
14008;DHT22;61651;45.508;12.232;2024-03-08T01:29:05;13.30;99.90
14008;DHT22;61651;45.508;12.232;2024-03-08T01:32:08;13.30;99.90
14008;DHT22;61651;45.508;12.232;2024-03-08T01:35:10;13.30;99.90
14008;DHT22;61651;45.508;12.232;2024-03-08T01:38:12;13.30;99.90
14008;DHT22;61651;45.508;12.232;2024-03-08T01:41:15;13.40;99.90
14008;DHT22;61651;45.508;12.232;2024-03-08T01:44:18;13.30;99.90
14008;DHT22;61651;45.508;12.232;2024-03-08T01:47:21;13.30;99.90
14008;DHT22;61651;45.508;12.232;2024-03-08T01:50:24;13.30;99.90
14008;DHT22;61651;45.508;12.232;2024-03-08T01:53:26;13.30;99.90
14008;DHT22;61651;45.508;12.232;2024-03-08T01:56:30;13.30;99.90
14008;DHT22;61651;45.508;12.232;2024-03-08T01:59:33;13.30;99.90
14008;DHT22;61651;45.508;12.232;2024-03-08T02:02:36;13.30;99.90
14008;DHT22;61651;45.508;12.232;2024-03-08T02:05:40;13.30;99.90
14008;DHT22;61651;45.508;12.232;2024-03-08T02:08:43;13.30;99.90
14008;DHT22;61651;45.508;12.232;2024-03-08T02:11:46;13.30;99.90
14008;DHT22;61651;45.508;12.232;2024-03-08T02:14:48;13.20;99.90
14008;DHT22;61651;45.508;12.232;2024-03-08T02:17:50;13.20;99.90
14008;DHT22;61651;45.508;12.232;2024-03-08T02:20:55;13.10;99.90
14008;DHT22;61651;45.508;12.232;2024-03-08T02:23:58;12.90;99.90
14008;DHT22;61651;45.508;12.232;2024-03-08T02:27:00;12.90;99.90
14008;DHT22;61651;45.508;12.232;2024-03-08T02:30:03;12.90;99.90
14008;DHT22;61651;45.508;12.232;2024-03-08T02:33:05;13.00;99.90
14008;DHT22;61651;45.508;12.232;2024-03-08T02:36:09;13.00;99.90
14008;DHT22;61651;45.508;12.232;2024-03-08T02:39:12;12.90;99.90
14008;DHT22;61651;45.508;12.232;2024-03-08T02:42:14;12.90;99.90
14008;DHT22;61651;45.508;12.232;2024-03-08T02:45:16;12.90;99.90
14008;DHT22;61651;45.508;12.232;2024-03-08T02:48:18;12.90;99.90
14008;DHT22;61651;45.508;12.232;2024-03-08T02:51:23;12.90;99.90
14008;DHT22;61651;45.508;12.232;2024-03-08T02:54:27;12.80;99.90
14008;DHT22;61651;45.508;12.232;2024-03-08T02:57:29;12.90;99.90
14008;DHT22;61651;45.508;12.232;2024-03-08T03:00:31;12.90;99.90
14008;DHT22;61651;45.508;12.232;2024-03-08T03:03:33;12.80;99.90
14008;DHT22;61651;45.508;12.232;2024-03-08T03:06:36;12.70;99.90
14008;DHT22;61651;45.508;12.232;2024-03-08T03:09:38;12.70;99.90
14008;DHT22;61651;45.508;12.232;2024-03-08T03:12:40;12.60;99.90
14008;DHT22;61651;45.508;12.232;2024-03-08T03:15:42;12.60;99.90
14008;DHT22;61651;45.508;12.232;2024-03-08T03:18:44;12.50;99.90
14008;DHT22;61651;45.508;12.232;2024-03-08T03:21:47;12.60;99.90
14008;DHT22;61651;45.508;12.232;2024-03-08T03:24:49;12.70;99.90
14008;DHT22;61651;45.508;12.232;2024-03-08T03:27:52;12.70;99.90
14008;DHT22;61651;45.508;12.232;2024-03-08T03:30:57;12.70;99.90
14008;DHT22;61651;45.508;12.232;2024-03-08T03:34:00;12.60;99.90
14008;DHT22;61651;45.508;12.232;2024-03-08T03:37:05;12.60;99.90
14008;DHT22;61651;45.508;12.232;2024-03-08T03:40:09;12.50;99.90
14008;DHT22;61651;45.508;12.232;2024-03-08T03:43:11;12.60;99.90
14008;DHT22;61651;45.508;12.232;2024-03-08T03:46:13;12.50;99.90
14008;DHT22;61651;45.508;12.232;2024-03-08T03:49:15;12.50;99.90
14008;DHT22;61651;45.508;12.232;2024-03-08T03:52:19;12.60;99.90
14008;DHT22;61651;45.508;12.232;2024-03-08T03:55:21;12.50;99.90
14008;DHT22;61651;45.508;12.232;2024-03-08T03:58:23;12.50;99.90
14008;DHT22;61651;45.508;12.232;2024-03-08T04:01:24;12.50;99.90
14008;DHT22;61651;45.508;12.232;2024-03-08T04:04:26;12.50;99.90
14008;DHT22;61651;45.508;12.232;2024-03-08T04:07:31;12.50;99.90
14008;DHT22;61651;45.508;12.232;2024-03-08T04:10:33;12.50;99.90
14008;DHT22;61651;45.508;12.232;2024-03-08T04:13:35;12.50;99.90
14008;DHT22;61651;45.508;12.232;2024-03-08T04:16:37;12.50;99.90
14008;DHT22;61651;45.508;12.232;2024-03-08T04:19:39;12.50;99.90
14008;DHT22;61651;45.508;12.232;2024-03-08T04:22:42;12.50;99.90
14008;DHT22;61651;45.508;12.232;2024-03-08T04:25:45;12.50;99.90
14008;DHT22;61651;45.508;12.232;2024-03-08T04:28:47;12.50;99.90
14008;DHT22;61651;45.508;12.232;2024-03-08T06:03:13;12.00;99.90
14008;DHT22;61651;45.508;12.232;2024-03-08T06:06:15;11.90;99.90
14008;DHT22;61651;45.508;12.232;2024-03-08T06:09:18;11.90;99.90
14008;DHT22;61651;45.508;12.232;2024-03-08T06:12:23;12.00;99.90
14008;DHT22;61651;45.508;12.232;2024-03-08T06:15:29;11.90;99.90
14008;DHT22;61651;45.508;12.232;2024-03-08T06:18:32;11.90;99.90
14008;DHT22;61651;45.508;12.232;2024-03-08T06:21:34;11.90;99.90
14008;DHT22;61651;45.508;12.232;2024-03-08T06:24:36;11.90;99.90
14008;DHT22;61651;45.508;12.232;2024-03-08T06:27:38;12.00;99.90
14008;DHT22;61651;45.508;12.232;2024-03-08T06:30:40;12.10;99.90
14008;DHT22;61651;45.508;12.232;2024-03-08T06:33:44;11.90;99.90
14008;DHT22;61651;45.508;12.232;2024-03-08T06:36:46;11.90;99.90
14008;DHT22;61651;45.508;12.232;2024-03-08T06:39:48;12.00;99.90
14008;DHT22;61651;45.508;12.232;2024-03-08T06:42:51;12.00;99.90
14008;DHT22;61651;45.508;12.232;2024-03-08T06:45:54;11.90;99.90
14008;DHT22;61651;45.508;12.232;2024-03-08T06:48:57;11.80;99.90
14008;DHT22;61651;45.508;12.232;2024-03-08T06:51:59;11.80;99.90
14008;DHT22;61651;45.508;12.232;2024-03-08T06:55:01;11.90;99.90
14008;DHT22;61651;45.508;12.232;2024-03-08T06:58:06;11.90;99.90
14008;DHT22;61651;45.508;12.232;2024-03-08T07:01:08;11.70;99.90
14008;DHT22;61651;45.508;12.232;2024-03-08T07:04:15;11.70;99.90
14008;DHT22;61651;45.508;12.232;2024-03-08T07:07:17;11.70;99.90
14008;DHT22;61651;45.508;12.232;2024-03-08T07:10:21;11.80;99.90
14008;DHT22;61651;45.508;12.232;2024-03-08T07:13:25;11.80;99.90
14008;DHT22;61651;45.508;12.232;2024-03-08T07:16:28;11.80;99.90
14008;DHT22;61651;45.508;12.232;2024-03-08T07:19:31;11.70;99.90
14008;DHT22;61651;45.508;12.232;2024-03-08T07:22:33;11.60;99.90
14008;DHT22;61651;45.508;12.232;2024-03-08T07:25:37;11.70;99.90
14008;DHT22;61651;45.508;12.232;2024-03-08T07:28:39;11.80;99.90
14008;DHT22;61651;45.508;12.232;2024-03-08T07:31:41;11.80;99.90
14008;DHT22;61651;45.508;12.232;2024-03-08T07:34:53;11.80;99.90
14008;DHT22;61651;45.508;12.232;2024-03-08T07:37:56;11.80;99.90
14008;DHT22;61651;45.508;12.232;2024-03-08T07:40:58;11.80;99.90
14008;DHT22;61651;45.508;12.232;2024-03-08T07:44:00;11.70;99.90
14008;DHT22;61651;45.508;12.232;2024-03-08T07:47:04;11.70;99.90
14008;DHT22;61651;45.508;12.232;2024-03-08T07:50:11;11.60;99.90
14008;DHT22;61651;45.508;12.232;2024-03-08T07:53:16;11.60;99.90
14008;DHT22;61651;45.508;12.232;2024-03-08T07:56:18;11.60;99.90
14008;DHT22;61651;45.508;12.232;2024-03-08T07:59:22;11.50;99.90
14008;DHT22;61651;45.508;12.232;2024-03-08T08:02:24;11.60;99.90
14008;DHT22;61651;45.508;12.232;2024-03-08T08:05:27;11.60;99.90
14008;DHT22;61651;45.508;12.232;2024-03-08T08:08:29;11.60;99.90
14008;DHT22;61651;45.508;12.232;2024-03-08T08:11:32;11.60;99.90
14008;DHT22;61651;45.508;12.232;2024-03-08T08:14:34;11.60;99.90
14008;DHT22;61651;45.508;12.232;2024-03-08T08:17:37;11.60;99.90
14008;DHT22;61651;45.508;12.232;2024-03-08T08:20:40;11.60;99.90
14008;DHT22;61651;45.508;12.232;2024-03-08T08:23:42;11.70;99.90
14008;DHT22;61651;45.508;12.232;2024-03-08T08:26:44;11.70;99.90
14008;DHT22;61651;45.508;12.232;2024-03-08T08:29:46;11.70;99.90
14008;DHT22;61651;45.508;12.232;2024-03-08T08:32:50;11.70;99.90
14008;DHT22;61651;45.508;12.232;2024-03-08T08:35:53;11.80;99.90
14008;DHT22;61651;45.508;12.232;2024-03-08T08:38:55;11.70;99.90
14008;DHT22;61651;45.508;12.232;2024-03-08T08:41:59;11.60;99.90
14008;DHT22;61651;45.508;12.232;2024-03-08T08:45:00;11.70;99.90
14008;DHT22;61651;45.508;12.232;2024-03-08T08:48:05;11.70;99.90
14008;DHT22;61651;45.508;12.232;2024-03-08T08:51:11;11.80;99.90
14008;DHT22;61651;45.508;12.232;2024-03-08T08:54:13;11.80;99.90
14008;DHT22;61651;45.508;12.232;2024-03-08T08:57:17;11.70;99.90
14008;DHT22;61651;45.508;12.232;2024-03-08T09:00:20;11.70;99.90
14008;DHT22;61651;45.508;12.232;2024-03-08T09:03:22;11.70;99.90
14008;DHT22;61651;45.508;12.232;2024-03-08T09:06:27;11.60;99.90
14008;DHT22;61651;45.508;12.232;2024-03-08T09:09:28;11.60;99.90
14008;DHT22;61651;45.508;12.232;2024-03-08T09:12:30;11.50;99.90
14008;DHT22;61651;45.508;12.232;2024-03-08T09:15:33;11.60;99.90
14008;DHT22;61651;45.508;12.232;2024-03-08T09:18:36;11.60;99.90
14008;DHT22;61651;45.508;12.232;2024-03-08T09:21:40;11.70;99.90
14008;DHT22;61651;45.508;12.232;2024-03-08T09:24:42;11.70;99.90
14008;DHT22;61651;45.508;12.232;2024-03-08T09:27:44;11.70;99.90
14008;DHT22;61651;45.508;12.232;2024-03-08T09:30:47;11.60;99.90
14008;DHT22;61651;45.508;12.232;2024-03-08T09:33:48;11.50;99.90
14008;DHT22;61651;45.508;12.232;2024-03-08T09:36:52;11.60;99.90
14008;DHT22;61651;45.508;12.232;2024-03-08T09:39:54;11.70;99.90
14008;DHT22;61651;45.508;12.232;2024-03-08T09:42:56;11.70;99.90
14008;DHT22;61651;45.508;12.232;2024-03-08T09:45:58;11.70;99.90
14008;DHT22;61651;45.508;12.232;2024-03-08T09:49:00;11.70;99.90
14008;DHT22;61651;45.508;12.232;2024-03-08T09:52:06;11.70;99.90
14008;DHT22;61651;45.508;12.232;2024-03-08T09:55:10;11.80;99.90
14008;DHT22;61651;45.508;12.232;2024-03-08T09:58:13;11.90;99.90
14008;DHT22;61651;45.508;12.232;2024-03-08T10:01:36;11.90;99.90
14008;DHT22;61651;45.508;12.232;2024-03-08T10:04:39;12.00;99.90
14008;DHT22;61651;45.508;12.232;2024-03-08T10:07:44;12.10;99.90
14008;DHT22;61651;45.508;12.232;2024-03-08T10:10:46;12.30;99.90
14008;DHT22;61651;45.508;12.232;2024-03-08T10:13:48;12.40;99.90
14008;DHT22;61651;45.508;12.232;2024-03-08T10:16:52;12.50;99.90
14008;DHT22;61651;45.508;12.232;2024-03-08T10:19:54;12.50;99.90
14008;DHT22;61651;45.508;12.232;2024-03-08T10:22:58;12.40;99.90
14008;DHT22;61651;45.508;12.232;2024-03-08T10:26:11;12.40;99.90
14008;DHT22;61651;45.508;12.232;2024-03-08T10:29:15;12.40;99.90
14008;DHT22;61651;45.508;12.232;2024-03-08T10:32:18;12.50;99.90
14008;DHT22;61651;45.508;12.232;2024-03-08T10:35:21;12.60;99.90
14008;DHT22;61651;45.508;12.232;2024-03-08T10:38:26;12.60;99.90
14008;DHT22;61651;45.508;12.232;2024-03-08T10:41:33;12.80;99.90
14008;DHT22;61651;45.508;12.232;2024-03-08T10:44:48;12.80;99.90
14008;DHT22;61651;45.508;12.232;2024-03-08T10:48:03;12.90;99.90
14008;DHT22;61651;45.508;12.232;2024-03-08T10:51:06;13.00;99.90
14008;DHT22;61651;45.508;12.232;2024-03-08T10:54:14;13.20;99.90
14008;DHT22;61651;45.508;12.232;2024-03-08T10:57:18;13.30;99.90
14008;DHT22;61651;45.508;12.232;2024-03-08T11:00:21;13.30;99.90
14008;DHT22;61651;45.508;12.232;2024-03-08T11:03:46;13.30;99.90
14008;DHT22;61651;45.508;12.232;2024-03-08T11:06:51;13.30;99.90
14008;DHT22;61651;45.508;12.232;2024-03-08T11:09:56;13.30;99.90
14008;DHT22;61651;45.508;12.232;2024-03-08T11:12:58;13.40;99.90
14008;DHT22;61651;45.508;12.232;2024-03-08T11:16:00;13.30;99.90
14008;DHT22;61651;45.508;12.232;2024-03-08T11:19:22;13.20;99.90
14008;DHT22;61651;45.508;12.232;2024-03-08T11:22:28;13.20;99.90
14008;DHT22;61651;45.508;12.232;2024-03-08T11:25:34;13.10;99.90
14008;DHT22;61651;45.508;12.232;2024-03-08T11:28:42;13.10;99.90
14008;DHT22;61651;45.508;12.232;2024-03-08T11:31:44;13.00;99.90
14008;DHT22;61651;45.508;12.232;2024-03-08T11:34:48;13.00;99.90
14008;DHT22;61651;45.508;12.232;2024-03-08T11:37:50;13.00;99.90
14008;DHT22;61651;45.508;12.232;2024-03-08T11:40:56;13.10;99.90
14008;DHT22;61651;45.508;12.232;2024-03-08T11:44:03;13.20;99.90
14008;DHT22;61651;45.508;12.232;2024-03-08T11:47:08;13.20;99.90
14008;DHT22;61651;45.508;12.232;2024-03-08T11:50:11;13.20;99.90
14008;DHT22;61651;45.508;12.232;2024-03-08T11:53:13;13.20;99.90
14008;DHT22;61651;45.508;12.232;2024-03-08T11:56:16;13.10;99.90
14008;DHT22;61651;45.508;12.232;2024-03-08T11:59:20;13.00;99.90
14008;DHT22;61651;45.508;12.232;2024-03-08T12:02:22;12.90;99.90
14008;DHT22;61651;45.508;12.232;2024-03-08T12:05:24;12.90;99.90
14008;DHT22;61651;45.508;12.232;2024-03-08T12:08:26;13.00;99.90
14008;DHT22;61651;45.508;12.232;2024-03-08T12:11:31;13.00;99.90
14008;DHT22;61651;45.508;12.232;2024-03-08T12:14:34;12.90;99.90
14008;DHT22;61651;45.508;12.232;2024-03-08T12:17:36;12.90;99.90
14008;DHT22;61651;45.508;12.232;2024-03-08T12:20:38;12.80;99.90
14008;DHT22;61651;45.508;12.232;2024-03-08T12:23:40;12.70;99.90
14008;DHT22;61651;45.508;12.232;2024-03-08T12:26:44;12.60;99.90
14008;DHT22;61651;45.508;12.232;2024-03-08T12:29:46;12.70;99.90
14008;DHT22;61651;45.508;12.232;2024-03-08T12:32:51;12.60;99.90
14008;DHT22;61651;45.508;12.232;2024-03-08T12:35:55;12.60;99.90
14008;DHT22;61651;45.508;12.232;2024-03-08T12:38:59;12.80;99.90
14008;DHT22;61651;45.508;12.232;2024-03-08T12:42:03;12.80;99.90
14008;DHT22;61651;45.508;12.232;2024-03-08T12:45:06;12.80;99.90
14008;DHT22;61651;45.508;12.232;2024-03-08T12:48:13;12.90;99.90
14008;DHT22;61651;45.508;12.232;2024-03-08T12:51:16;13.10;99.90
14008;DHT22;61651;45.508;12.232;2024-03-08T12:54:19;13.20;99.90
14008;DHT22;61651;45.508;12.232;2024-03-08T12:57:25;13.10;99.90
14008;DHT22;61651;45.508;12.232;2024-03-08T13:00:28;13.20;99.90
14008;DHT22;61651;45.508;12.232;2024-03-08T13:03:30;13.20;99.90
14008;DHT22;61651;45.508;12.232;2024-03-08T13:06:33;13.00;99.90
14008;DHT22;61651;45.508;12.232;2024-03-08T13:09:35;13.10;99.90
14008;DHT22;61651;45.508;12.232;2024-03-08T13:12:39;13.10;99.90
14008;DHT22;61651;45.508;12.232;2024-03-08T13:15:42;13.00;99.90
14008;DHT22;61651;45.508;12.232;2024-03-08T13:18:46;13.00;99.90
14008;DHT22;61651;45.508;12.232;2024-03-08T13:21:49;13.00;99.90
14008;DHT22;61651;45.508;12.232;2024-03-08T13:24:51;13.00;99.90
14008;DHT22;61651;45.508;12.232;2024-03-08T13:27:55;13.10;99.90
14008;DHT22;61651;45.508;12.232;2024-03-08T13:31:00;13.10;99.90
14008;DHT22;61651;45.508;12.232;2024-03-08T13:34:02;13.00;99.90
14008;DHT22;61651;45.508;12.232;2024-03-08T13:37:06;13.00;99.90
14008;DHT22;61651;45.508;12.232;2024-03-08T13:40:10;13.10;99.90
14008;DHT22;61651;45.508;12.232;2024-03-08T13:43:15;13.00;99.90
14008;DHT22;61651;45.508;12.232;2024-03-08T13:46:18;12.90;99.90
14008;DHT22;61651;45.508;12.232;2024-03-08T13:49:20;12.90;99.90
14008;DHT22;61651;45.508;12.232;2024-03-08T13:52:22;12.90;99.90
14008;DHT22;61651;45.508;12.232;2024-03-08T13:55:25;12.90;99.90
14008;DHT22;61651;45.508;12.232;2024-03-08T13:58:29;13.00;99.90
14008;DHT22;61651;45.508;12.232;2024-03-08T14:01:31;13.00;99.90
14008;DHT22;61651;45.508;12.232;2024-03-08T14:04:33;13.00;99.90
14008;DHT22;61651;45.508;12.232;2024-03-08T14:07:35;13.00;99.90
14008;DHT22;61651;45.508;12.232;2024-03-08T14:10:37;12.90;99.90
14008;DHT22;61651;45.508;12.232;2024-03-08T14:13:44;13.00;99.90
14008;DHT22;61651;45.508;12.232;2024-03-08T14:16:46;12.80;99.90
14008;DHT22;61651;45.508;12.232;2024-03-08T14:19:48;12.90;99.90
14008;DHT22;61651;45.508;12.232;2024-03-08T14:22:51;13.00;99.90
14008;DHT22;61651;45.508;12.232;2024-03-08T14:25:53;13.00;99.90
14008;DHT22;61651;45.508;12.232;2024-03-08T14:28:56;13.10;99.90
14008;DHT22;61651;45.508;12.232;2024-03-08T14:31:58;13.10;99.90
14008;DHT22;61651;45.508;12.232;2024-03-08T14:35:01;13.10;99.90
14008;DHT22;61651;45.508;12.232;2024-03-08T14:38:04;13.00;99.90
14008;DHT22;61651;45.508;12.232;2024-03-08T14:41:08;13.00;99.90
14008;DHT22;61651;45.508;12.232;2024-03-08T14:44:12;12.90;99.90
14008;DHT22;61651;45.508;12.232;2024-03-08T14:47:14;12.90;99.90
14008;DHT22;61651;45.508;12.232;2024-03-08T14:50:16;12.90;99.90
14008;DHT22;61651;45.508;12.232;2024-03-08T14:53:18;12.80;99.90
14008;DHT22;61651;45.508;12.232;2024-03-08T14:56:20;12.80;99.90
14008;DHT22;61651;45.508;12.232;2024-03-08T14:59:24;12.80;99.90
14008;DHT22;61651;45.508;12.232;2024-03-08T15:02:30;12.70;99.90
14008;DHT22;61651;45.508;12.232;2024-03-08T15:05:33;12.70;99.90
14008;DHT22;61651;45.508;12.232;2024-03-08T15:08:39;12.70;99.90
14008;DHT22;61651;45.508;12.232;2024-03-08T15:11:41;12.70;99.90
14008;DHT22;61651;45.508;12.232;2024-03-08T15:14:44;12.70;99.90
14008;DHT22;61651;45.508;12.232;2024-03-08T15:17:47;12.80;99.90
14008;DHT22;61651;45.508;12.232;2024-03-08T15:20:49;12.80;99.90
14008;DHT22;61651;45.508;12.232;2024-03-08T15:23:51;12.80;99.90
14008;DHT22;61651;45.508;12.232;2024-03-08T15:26:54;12.70;99.90
14008;DHT22;61651;45.508;12.232;2024-03-08T15:29:59;12.70;99.90
14008;DHT22;61651;45.508;12.232;2024-03-08T15:33:01;12.70;99.90
14008;DHT22;61651;45.508;12.232;2024-03-08T15:36:04;12.70;99.90
14008;DHT22;61651;45.508;12.232;2024-03-08T15:39:09;12.60;99.90
14008;DHT22;61651;45.508;12.232;2024-03-08T15:42:12;12.70;99.90
14008;DHT22;61651;45.508;12.232;2024-03-08T15:45:15;12.60;99.90
14008;DHT22;61651;45.508;12.232;2024-03-08T15:48:17;12.50;99.90
14008;DHT22;61651;45.508;12.232;2024-03-08T15:51:19;12.50;99.90
14008;DHT22;61651;45.508;12.232;2024-03-08T15:54:21;12.60;99.90
14008;DHT22;61651;45.508;12.232;2024-03-08T15:57:23;12.50;99.90
14008;DHT22;61651;45.508;12.232;2024-03-08T16:00:27;12.60;99.90
14008;DHT22;61651;45.508;12.232;2024-03-08T16:03:36;12.50;99.90
14008;DHT22;61651;45.508;12.232;2024-03-08T16:06:38;12.50;99.90
14008;DHT22;61651;45.508;12.232;2024-03-08T16:09:40;12.50;99.90
14008;DHT22;61651;45.508;12.232;2024-03-08T16:12:43;12.60;99.90
14008;DHT22;61651;45.508;12.232;2024-03-08T16:15:47;12.60;99.90
14008;DHT22;61651;45.508;12.232;2024-03-08T16:18:49;12.50;99.90
14008;DHT22;61651;45.508;12.232;2024-03-08T16:21:52;12.50;99.90
14008;DHT22;61651;45.508;12.232;2024-03-08T16:24:53;12.60;99.90
14008;DHT22;61651;45.508;12.232;2024-03-08T16:27:56;12.60;99.90
14008;DHT22;61651;45.508;12.232;2024-03-08T16:30:59;12.60;99.90
14008;DHT22;61651;45.508;12.232;2024-03-08T16:34:01;12.50;99.90
14008;DHT22;61651;45.508;12.232;2024-03-08T16:37:04;12.60;99.90
14008;DHT22;61651;45.508;12.232;2024-03-08T16:40:07;12.60;99.90
14008;DHT22;61651;45.508;12.232;2024-03-08T16:43:15;12.60;99.90
14008;DHT22;61651;45.508;12.232;2024-03-08T16:46:20;12.60;99.90
14008;DHT22;61651;45.508;12.232;2024-03-08T16:49:22;12.60;99.90
14008;DHT22;61651;45.508;12.232;2024-03-08T16:52:24;12.60;99.90
14008;DHT22;61651;45.508;12.232;2024-03-08T16:55:27;12.60;99.90
14008;DHT22;61651;45.508;12.232;2024-03-08T16:58:30;12.60;99.90
14008;DHT22;61651;45.508;12.232;2024-03-08T17:01:35;12.50;99.90
14008;DHT22;61651;45.508;12.232;2024-03-08T17:04:39;12.50;99.90
14008;DHT22;61651;45.508;12.232;2024-03-08T17:07:40;12.40;99.90
14008;DHT22;61651;45.508;12.232;2024-03-08T17:10:44;12.50;99.90
14008;DHT22;61651;45.508;12.232;2024-03-08T17:13:46;12.40;99.90
14008;DHT22;61651;45.508;12.232;2024-03-08T17:16:49;12.40;99.90
14008;DHT22;61651;45.508;12.232;2024-03-08T17:19:51;12.40;99.90
14008;DHT22;61651;45.508;12.232;2024-03-08T17:22:56;12.40;99.90
14008;DHT22;61651;45.508;12.232;2024-03-08T17:25:58;12.40;99.90
14008;DHT22;61651;45.508;12.232;2024-03-08T17:29:01;12.40;99.90
14008;DHT22;61651;45.508;12.232;2024-03-08T17:32:05;12.40;99.90
14008;DHT22;61651;45.508;12.232;2024-03-08T17:35:08;12.30;99.90
14008;DHT22;61651;45.508;12.232;2024-03-08T17:38:12;12.30;99.90
14008;DHT22;61651;45.508;12.232;2024-03-08T17:41:16;12.30;99.90
14008;DHT22;61651;45.508;12.232;2024-03-08T17:44:23;12.30;99.90
14008;DHT22;61651;45.508;12.232;2024-03-08T17:47:29;12.30;99.90
14008;DHT22;61651;45.508;12.232;2024-03-08T17:50:31;12.30;99.90
14008;DHT22;61651;45.508;12.232;2024-03-08T17:53:33;12.20;99.90
14008;DHT22;61651;45.508;12.232;2024-03-08T17:56:35;12.20;99.90
14008;DHT22;61651;45.508;12.232;2024-03-08T17:59:38;12.30;99.90
14008;DHT22;61651;45.508;12.232;2024-03-08T18:02:41;12.30;99.90
14008;DHT22;61651;45.508;12.232;2024-03-08T18:05:43;12.30;99.90
14008;DHT22;61651;45.508;12.232;2024-03-08T18:08:45;12.30;99.90
14008;DHT22;61651;45.508;12.232;2024-03-08T18:11:47;12.40;99.90
14008;DHT22;61651;45.508;12.232;2024-03-08T18:14:51;12.30;99.90
14008;DHT22;61651;45.508;12.232;2024-03-08T18:17:56;12.30;99.90
14008;DHT22;61651;45.508;12.232;2024-03-08T18:21:04;12.30;99.90
14008;DHT22;61651;45.508;12.232;2024-03-08T18:24:07;12.20;99.90
14008;DHT22;61651;45.508;12.232;2024-03-08T18:27:12;12.30;99.90
14008;DHT22;61651;45.508;12.232;2024-03-08T18:30:15;12.20;99.90
14008;DHT22;61651;45.508;12.232;2024-03-08T18:33:19;12.10;99.90
14008;DHT22;61651;45.508;12.232;2024-03-08T18:36:22;12.10;99.90
14008;DHT22;61651;45.508;12.232;2024-03-08T18:39:24;12.10;99.90
14008;DHT22;61651;45.508;12.232;2024-03-08T18:42:27;12.10;99.90
14008;DHT22;61651;45.508;12.232;2024-03-08T18:45:30;12.00;99.90
14008;DHT22;61651;45.508;12.232;2024-03-08T18:48:37;12.00;99.90
14008;DHT22;61651;45.508;12.232;2024-03-08T18:51:40;12.10;99.90
14008;DHT22;61651;45.508;12.232;2024-03-08T18:54:45;12.10;99.90
14008;DHT22;61651;45.508;12.232;2024-03-08T18:57:47;12.00;99.90
14008;DHT22;61651;45.508;12.232;2024-03-08T19:00:52;12.00;99.90
14008;DHT22;61651;45.508;12.232;2024-03-08T19:03:57;12.00;99.90
14008;DHT22;61651;45.508;12.232;2024-03-08T19:06:59;12.20;99.90
14008;DHT22;61651;45.508;12.232;2024-03-08T19:10:00;12.20;99.90
14008;DHT22;61651;45.508;12.232;2024-03-08T19:13:07;12.20;99.90
14008;DHT22;61651;45.508;12.232;2024-03-08T19:16:11;12.20;99.90
14008;DHT22;61651;45.508;12.232;2024-03-08T19:19:17;12.20;99.90
14008;DHT22;61651;45.508;12.232;2024-03-08T19:22:22;12.20;99.90
14008;DHT22;61651;45.508;12.232;2024-03-08T19:25:25;12.20;99.90
14008;DHT22;61651;45.508;12.232;2024-03-08T19:28:28;12.20;99.90
14008;DHT22;61651;45.508;12.232;2024-03-08T19:31:30;12.20;99.90
14008;DHT22;61651;45.508;12.232;2024-03-08T19:34:34;12.30;99.90
14008;DHT22;61651;45.508;12.232;2024-03-08T19:37:36;12.20;99.90
14008;DHT22;61651;45.508;12.232;2024-03-08T19:40:39;12.10;99.90
14008;DHT22;61651;45.508;12.232;2024-03-08T19:43:45;12.20;99.90
14008;DHT22;61651;45.508;12.232;2024-03-08T19:46:47;12.20;99.90
14008;DHT22;61651;45.508;12.232;2024-03-08T19:49:50;12.20;99.90
14008;DHT22;61651;45.508;12.232;2024-03-08T19:52:55;12.20;99.90
14008;DHT22;61651;45.508;12.232;2024-03-08T19:55:57;12.20;99.90
14008;DHT22;61651;45.508;12.232;2024-03-08T19:59:01;12.10;99.90
14008;DHT22;61651;45.508;12.232;2024-03-08T20:02:03;12.10;99.90
14008;DHT22;61651;45.508;12.232;2024-03-08T20:05:07;12.00;99.90
14008;DHT22;61651;45.508;12.232;2024-03-08T20:08:10;12.00;99.90
14008;DHT22;61651;45.508;12.232;2024-03-08T20:11:14;12.00;99.90
14008;DHT22;61651;45.508;12.232;2024-03-08T20:14:16;12.10;99.90
14008;DHT22;61651;45.508;12.232;2024-03-08T20:17:18;12.20;99.90
14008;DHT22;61651;45.508;12.232;2024-03-08T20:20:22;12.20;99.90
14008;DHT22;61651;45.508;12.232;2024-03-08T20:23:24;12.10;99.90
14008;DHT22;61651;45.508;12.232;2024-03-08T20:26:26;12.20;99.90
14008;DHT22;61651;45.508;12.232;2024-03-08T20:29:28;12.20;99.90